createdAt,value
2024-05-09T00:03:04.491Z,0
2024-05-09T00:09:24.375Z,0
2024-05-09T00:15:46.432Z,0
2024-05-09T00:22:06.412Z,0
2024-05-09T00:28:28.405Z,0
2024-05-09T00:34:48.518Z,0
2024-05-09T00:41:10.626Z,0
2024-05-09T00:47:30.615Z,0
2024-05-09T00:53:52.533Z,0
2024-05-09T01:00:18.516Z,0
2024-05-09T01:06:34.512Z,0
2024-05-09T01:12:54.396Z,0
2024-05-09T01:19:16.602Z,0
2024-05-09T01:25:36.468Z,0
2024-05-09T01:31:58.522Z,0
2024-05-09T01:38:18.500Z,0
2024-05-09T01:44:40.468Z,0
2024-05-09T01:51:00.584Z,0
2024-05-09T01:57:22.474Z,0
2024-05-09T02:03:42.418Z,0
2024-05-09T02:10:08.355Z,0
2024-05-09T02:16:24.423Z,0
2024-05-09T02:22:46.467Z,0
2024-05-09T02:29:06.504Z,0
2024-05-09T02:35:28.610Z,0
2024-05-09T02:41:48.401Z,0
2024-05-09T02:48:10.619Z,0
2024-05-09T02:54:30.407Z,0
2024-05-09T03:00:52.442Z,0
2024-05-09T03:07:12.475Z,0
2024-05-09T03:13:34.609Z,0
2024-05-09T03:30:07.282Z,0
2024-05-09T03:36:27.375Z,0
2024-05-09T03:42:47.446Z,0
2024-05-09T03:49:09.569Z,0
2024-05-09T03:55:29.490Z,0
2024-05-09T04:01:51.536Z,0
2024-05-09T04:08:11.708Z,0
2024-05-09T04:14:33.434Z,0
2024-05-09T04:20:53.466Z,5.62
2024-05-09T04:27:15.485Z,5.62
2024-05-09T04:33:35.650Z,5.62
2024-05-09T04:39:57.408Z,5.62
2024-05-09T04:46:17.397Z,11.25
2024-05-09T04:52:39.368Z,11.25
2024-05-09T04:58:59.466Z,11.25
2024-05-09T05:05:21.443Z,16.88
2024-05-09T05:11:41.646Z,16.88
2024-05-09T05:18:03.626Z,16.88
2024-05-09T05:24:23.428Z,22.5
2024-05-09T05:30:45.472Z,22.5
2024-05-09T05:37:05.464Z,22.5
2024-05-09T05:43:27.436Z,22.5
2024-05-09T05:49:48.593Z,28.12
2024-05-09T05:56:10.420Z,28.12
2024-05-09T06:02:30.546Z,28.12
2024-05-09T06:08:52.518Z,28.12
2024-05-09T06:15:12.387Z,33.75
2024-05-09T06:21:34.477Z,33.75
2024-05-09T06:27:54.403Z,39.38
2024-05-09T06:34:16.565Z,33.75
2024-05-09T06:40:37.950Z,39.38
2024-05-09T06:46:59.891Z,39.38
2024-05-09T06:53:18.428Z,45
2024-05-09T06:59:40.465Z,45
2024-05-09T07:06:00.439Z,45
2024-05-09T07:12:22.484Z,50.62
2024-05-09T07:18:42.610Z,50.62
2024-05-09T07:25:04.431Z,56.25
2024-05-09T07:31:24.428Z,61.88
2024-05-09T07:37:46.723Z,61.88
2024-05-09T07:44:06.392Z,73.12
2024-05-09T07:56:48.540Z,73.12
2024-05-09T08:03:10.421Z,78.75
2024-05-09T08:09:30.429Z,84.38
2024-05-09T08:15:52.620Z,84.38
2024-05-09T08:22:12.477Z,78.75
2024-05-09T08:39:24.088Z,56.25
2024-05-09T08:45:44.403Z,56.25
2024-05-09T08:52:05.690Z,56.25
2024-05-09T08:58:25.694Z,61.88
2024-05-09T09:04:47.502Z,61.88
2024-05-09T09:11:07.433Z,67.5
2024-05-09T09:17:29.533Z,67.5
2024-05-09T09:23:49.403Z,73.12
2024-05-09T09:30:22.562Z,73.12
2024-05-09T09:36:31.512Z,78.75
2024-05-09T09:42:53.465Z,78.75
2024-05-09T09:49:13.469Z,78.75
2024-05-09T09:55:35.553Z,84.38
2024-05-09T10:01:55.454Z,84.38
2024-05-09T10:08:17.417Z,90
2024-05-09T10:14:37.454Z,90
2024-05-09T10:20:59.375Z,90
2024-05-09T10:27:19.542Z,90
2024-05-09T10:33:41.483Z,95.62
2024-05-09T10:40:01.449Z,95.62
2024-05-09T10:46:23.433Z,95.62
2024-05-09T10:52:43.403Z,95.62
2024-05-09T10:59:05.408Z,101.25
2024-05-09T11:05:25.398Z,101.25
2024-05-09T11:11:47.461Z,101.25
2024-05-09T11:18:07.414Z,106.88
2024-05-09T11:24:29.436Z,106.88
2024-05-09T11:30:49.424Z,112.5
2024-05-09T11:37:11.398Z,112.5
2024-05-09T11:43:31.450Z,118.12
2024-05-09T11:49:53.477Z,129.38
2024-05-09T11:56:13.408Z,129.38
2024-05-09T12:02:35.447Z,129.38
2024-05-09T12:08:55.442Z,140.62
2024-05-09T12:15:17.486Z,157.5
2024-05-09T12:21:37.439Z,157.5
2024-05-09T12:27:59.568Z,168.75
2024-05-09T12:34:19.403Z,180
2024-05-09T12:40:41.419Z,163.12
2024-05-09T12:47:01.433Z,185.62
2024-05-09T12:53:23.398Z,191.25
2024-05-09T12:59:43.410Z,67.5
2024-05-09T13:06:05.390Z,73.12
2024-05-09T13:12:25.369Z,84.38
2024-05-09T13:18:47.506Z,84.38
2024-05-09T13:25:07.471Z,90
2024-05-09T13:48:47.348Z,123.75
2024-05-09T13:55:08.512Z,84.38
2024-05-09T14:01:27.464Z,73.12
2024-05-09T14:07:49.399Z,84.38
2024-05-09T14:14:09.375Z,84.38
2024-05-09T14:20:32.157Z,95.62
2024-05-09T14:26:51.378Z,90
2024-05-09T14:33:12.467Z,208.12
2024-05-09T14:39:32.426Z,230.62
2024-05-09T14:45:54.636Z,225
2024-05-09T14:52:14.534Z,236.25
2024-05-09T14:58:36.399Z,230.62
2024-05-09T15:04:56.456Z,225
2024-05-09T15:11:18.426Z,225
2024-05-09T15:17:38.447Z,225
2024-05-09T15:24:00.434Z,225
2024-05-09T15:30:27.549Z,230.62
2024-05-09T15:36:43.244Z,225
2024-05-09T15:43:02.588Z,225
2024-05-09T15:49:24.527Z,202.5
2024-05-09T15:55:44.378Z,146.25
2024-05-09T16:02:06.487Z,61.88
2024-05-09T16:08:26.399Z,50.62
2024-05-09T16:14:48.369Z,50.62
2024-05-09T16:21:08.397Z,45
2024-05-09T16:27:30.438Z,73.12
2024-05-09T16:33:50.472Z,78.75
2024-05-09T16:40:18.578Z,84.38
2024-05-09T16:46:31.469Z,118.12
2024-05-09T16:52:53.385Z,112.5
2024-05-09T16:59:13.420Z,78.75
2024-05-09T17:05:36.054Z,78.75
2024-05-09T17:11:55.434Z,90
2024-05-09T17:18:17.438Z,50.62
2024-05-09T17:24:37.405Z,45
2024-05-09T17:30:59.411Z,39.38
2024-05-09T17:37:19.582Z,33.75
2024-05-09T17:43:41.441Z,33.75
2024-05-09T17:50:01.414Z,28.12
2024-05-09T17:56:23.396Z,28.12
2024-05-09T18:02:43.454Z,22.5
2024-05-09T18:09:05.378Z,22.5
2024-05-09T18:15:25.454Z,22.5
2024-05-09T18:21:47.467Z,16.88
2024-05-09T18:28:07.584Z,16.88
2024-05-09T18:34:29.477Z,16.88
2024-05-09T18:40:49.743Z,11.25
2024-05-09T18:47:11.647Z,11.25
2024-05-09T18:53:31.639Z,5.62
2024-05-09T18:59:53.519Z,5.62
2024-05-09T19:06:13.458Z,0
2024-05-09T19:12:35.418Z,0
2024-05-09T19:28:41.323Z,0
2024-05-09T19:35:00.364Z,0
2024-05-09T19:41:21.399Z,0
2024-05-09T19:47:41.608Z,0
2024-05-09T19:54:03.440Z,0
2024-05-09T20:00:28.967Z,0
2024-05-09T20:06:45.414Z,0
2024-05-09T20:13:06.193Z,0
2024-05-09T20:19:26.438Z,0
2024-05-09T20:25:46.573Z,0
2024-05-09T20:32:08.431Z,0
2024-05-09T20:38:28.420Z,0
2024-05-09T20:44:50.393Z,0
2024-05-09T20:51:10.410Z,0
2024-05-09T20:57:32.448Z,0
2024-05-09T21:03:52.508Z,0
2024-05-09T21:10:15.828Z,0
2024-05-09T21:16:34.450Z,0
2024-05-09T21:22:56.467Z,0
2024-05-09T21:29:16.460Z,0
2024-05-09T21:35:38.473Z,0
2024-05-09T21:41:58.398Z,0
2024-05-09T21:48:20.371Z,0
2024-05-09T21:54:40.429Z,0
2024-05-09T22:20:18.306Z,0
2024-05-09T22:26:33.393Z,0
2024-05-09T22:32:55.600Z,0
2024-05-09T22:39:15.493Z,0
2024-05-09T22:45:37.406Z,0
2024-05-09T22:51:57.401Z,0
2024-05-09T22:58:19.645Z,0
2024-05-09T23:04:39.552Z,0
2024-05-09T23:11:01.524Z,0
2024-05-09T23:17:21.445Z,0
2024-05-09T23:23:43.491Z,0
2024-05-09T23:30:04.592Z,0
2024-05-09T23:36:25.478Z,0
2024-05-09T23:42:45.415Z,0
2024-05-09T23:49:07.472Z,0
2024-05-09T23:55:27.467Z,0
